Time;durP1;ratioP1;P1;durP2;ratioP2;P2;SDS_P1;SDS_P2;PMS_P1;PMS_P2;Temp;Humidity;BMP_temperature;BMP_pressure;BME280_temperature;BME280_humidity;BME280_pressure;Samples;Min_cycle;Max_cycle;Signal;HPM_P1;HPM_P2
2022/04/25 00:01:34;;;;;;;2.63;1.52;;;;;;;19.54;34.33;100797.38;16133532;19;129855;-59
2022/04/25 00:06:56;;;;;;;1.52;1.25;;;;;;;19.54;34.53;100797.38;16133640;19;129810;-57
2022/04/25 00:12:18;;;;;;;2.50;1.30;;;;;;;19.52;34.53;100802.31;16132757;19;129640;-57
2022/04/25 00:17:40;;;;;;;4.28;1.52;;;;;;;19.50;34.20;100805.38;16135929;19;130201;-59
2022/04/25 00:23:05;;;;;;;4.25;1.40;;;;;;;19.49;34.22;100802.81;16134028;19;129897;-59
2022/04/25 00:28:27;;;;;;;3.35;1.40;;;;;;;19.46;34.25;100800.56;16134018;19;129383;-58
2022/04/25 00:33:49;;;;;;;1.90;1.20;;;;;;;19.45;34.65;100802.50;16130712;19;129120;-59
2022/04/25 00:39:11;;;;;;;4.22;1.63;;;;;;;19.44;34.18;100808.31;16130778;19;128881;-58
2022/04/25 00:44:32;;;;;;;3.22;1.40;;;;;;;19.42;34.43;100797.47;16133787;19;129473;-57
2022/04/25 00:49:55;;;;;;;3.05;1.75;;;;;;;19.42;34.39;100796.63;16131987;19;129343;-58
2022/04/25 00:55:17;;;;;;;3.72;1.48;;;;;;;19.41;34.60;100793.00;16125566;19;129357;-58
2022/04/25 01:00:39;;;;;;;3.83;1.45;;;;;;;19.40;34.23;100793.25;16128450;19;129386;-58
2022/04/25 01:06:00;;;;;;;2.85;1.52;;;;;;;19.37;34.48;100787.13;16146332;19;129625;-54
2022/04/25 01:11:23;;;;;;;3.58;1.58;;;;;;;19.37;34.62;100787.13;16140184;19;129481;-59
2022/04/25 01:16:45;;;;;;;2.35;1.30;;;;;;;19.36;34.49;100791.00;16145895;19;129592;-59
2022/04/25 01:22:13;;;;;;;3.78;1.60;;;;;;;19.34;34.22;100793.19;16147199;19;129021;-57
2022/04/25 01:27:35;;;;;;;4.53;1.60;;;;;;;19.32;34.45;100795.38;16145414;19;129490;-58
2022/04/25 01:32:56;;;;;;;3.83;1.60;;;;;;;19.31;34.55;100798.41;16144796;19;129174;-59
2022/04/25 01:38:18;;;;;;;5.57;1.42;;;;;;;19.31;34.29;100787.31;16144484;19;129125;-59
2022/04/25 01:43:40;;;;;;;4.00;1.60;;;;;;;19.28;34.74;100794.22;16146504;19;129275;-58
2022/04/25 01:49:01;;;;;;;2.72;1.65;;;;;;;19.27;34.61;100786.97;16140618;19;129612;-59
2022/04/25 01:54:26;;;;;;;3.40;1.80;;;;;;;19.28;34.75;100794.22;16141566;19;129431;-60
2022/04/25 01:59:48;;;;;;;3.55;1.35;;;;;;;19.24;34.73;100786.66;16144745;19;129450;-57
2022/04/25 02:05:10;;;;;;;4.28;1.55;;;;;;;19.25;34.61;100793.88;16141813;19;129734;-59
2022/04/25 02:10:32;;;;;;;2.05;1.60;;;;;;;19.22;34.53;100800.75;16142824;19;130121;-59
2022/04/25 02:15:55;;;;;;;3.70;1.58;;;;;;;19.20;34.84;100792.66;16137702;19;130076;-57
2022/04/25 02:21:17;;;;;;;2.88;1.70;;;;;;;19.19;34.45;100790.16;16141187;19;129568;-59
2022/04/25 02:26:39;;;;;;;5.10;1.77;;;;;;;19.18;34.55;100786.53;16139959;19;129530;-59
2022/04/25 02:32:01;;;;;;;3.65;1.52;;;;;;;19.18;34.40;100796.81;16140938;19;129443;-59
2022/04/25 02:37:25;;;;;;;3.30;1.80;;;;;;;19.18;34.69;100794.03;16139278;19;129312;-58
2022/04/25 02:42:46;;;;;;;3.97;1.50;;;;;;;19.16;34.95;100791.50;16143155;19;129586;-59
2022/04/25 02:48:08;;;;;;;3.55;2.00;;;;;;;19.15;34.75;100800.06;16135415;19;129749;-57
2022/04/25 02:53:31;;;;;;;2.53;1.40;;;;;;;19.16;34.77;100796.22;16137922;19;132375;-58
2022/04/25 02:58:52;;;;;;;4.25;1.80;;;;;;;19.14;34.54;100801.97;16139602;19;129455;-57
2022/04/25 03:04:14;;;;;;;3.25;1.88;;;;;;;19.14;34.69;100809.47;16139903;19;129237;-59
2022/04/25 03:09:36;;;;;;;3.97;1.50;;;;;;;19.14;34.51;100817.78;16133308;19;129435;-59
2022/04/25 03:14:57;;;;;;;3.25;1.92;;;;;;;19.13;34.95;100810.56;16133666;19;131759;-59
2022/04/25 03:20:19;;;;;;;2.72;1.55;;;;;;;19.12;34.96;100801.44;16139168;19;130180;-59
2022/04/25 03:25:41;;;;;;;3.05;1.90;;;;;;;19.11;34.60;100807.19;16136111;19;129336;-59
2022/04/25 03:31:06;;;;;;;2.65;1.42;;;;;;;19.11;34.83;100809.97;16137695;19;129403;-58
2022/04/25 03:36:31;;;;;;;4.78;1.70;;;;;;;19.10;34.68;100814.69;16131739;19;129697;-59
2022/04/25 03:41:53;;;;;;;4.88;1.40;;;;;;;19.09;34.91;100801.91;16135984;19;129536;-59
2022/04/25 03:47:14;;;;;;;4.47;1.88;;;;;;;19.07;35.06;100804.97;16132759;19;131945;-59
2022/04/25 03:52:42;;;;;;;2.50;1.63;;;;;;;19.08;34.83;100816.88;16134166;19;129507;-60
2022/04/25 03:58:05;;;;;;;4.72;1.90;;;;;;;19.06;34.79;100822.69;16134973;19;129431;-59
2022/04/25 04:03:26;;;;;;;2.50;1.40;;;;;;;19.05;35.17;100821.00;16133614;19;129733;-59
2022/04/25 04:08:48;;;;;;;2.15;1.30;;;;;;;19.05;35.15;100825.69;16127652;19;131631;-58
2022/04/25 04:14:10;;;;;;;4.43;1.55;;;;;;;19.05;35.04;100840.41;16129185;19;129522;-57
2022/04/25 04:19:33;;;;;;;2.30;1.40;;;;;;;19.04;35.17;100833.19;16132631;19;129292;-57
2022/04/25 04:25:02;;;;;;;2.85;1.30;;;;;;;19.05;34.92;100829.31;16129839;19;129074;-59
2022/04/25 04:30:24;;;;;;;3.28;1.50;;;;;;;19.02;35.29;100835.38;16132520;19;129337;-59
2022/04/25 04:41:26;;;;;;;2.88;1.40;;;;;;;19.00;34.89;100840.31;16147222;19;130450;-57
2022/04/25 04:46:48;;;;;;;2.80;1.60;;;;;;;19.00;35.35;100839.50;16140439;19;130367;-57
2022/04/25 04:52:10;;;;;;;2.20;1.23;;;;;;;18.99;35.15;100846.94;16135620;19;129455;-58
2022/04/25 04:57:32;;;;;;;2.30;1.48;;;;;;;18.98;35.39;100856.34;16137446;19;129261;-58
2022/04/25 05:02:53;;;;;;;1.50;1.15;;;;;;;18.99;35.08;100857.22;16146126;19;130202;-57
2022/04/25 05:08:15;;;;;;;2.28;1.35;;;;;;;18.98;35.42;100867.44;16144823;19;129238;-57
2022/04/25 05:13:37;;;;;;;4.15;1.55;;;;;;;18.98;35.30;100872.97;16141533;19;130063;-55
2022/04/25 05:19:00;;;;;;;1.60;1.02;;;;;;;18.99;35.51;100882.16;16145749;19;130374;-57
2022/04/25 05:24:21;;;;;;;11.32;1.40;;;;;;;19.00;35.62;100878.28;16144875;19;129709;-59
2022/04/25 05:29:43;;;;;;;4.90;1.35;;;;;;;19.04;35.50;100888.63;16143141;19;130524;-59
2022/04/25 05:35:06;;;;;;;4.55;1.40;;;;;;;19.10;36.03;100886.78;16140012;19;129376;-59
2022/04/25 05:40:28;;;;;;;7.30;1.75;;;;;;;19.19;36.24;100899.16;16143310;19;129393;-59
2022/04/25 05:45:50;;;;;;;8.43;1.65;;;;;;;19.28;36.17;100905.16;16138476;19;131093;-59
2022/04/25 05:56:53;;;;;;;4.22;2.15;;;;;;;19.34;36.43;100917.19;16132411;19;130685;-59
2022/04/25 06:02:17;;;;;;;4.32;1.40;;;;;;;19.34;36.18;100920.78;16141303;19;129055;-59
2022/04/25 06:07:43;;;;;;;6.47;1.80;;;;;;;19.32;36.43;100925.72;16141893;19;129555;-59
2022/04/25 06:13:05;;;;;;;5.05;1.88;;;;;;;19.31;36.19;100932.41;16137677;19;129717;-60
2022/04/25 06:18:27;;;;;;;11.35;2.30;;;;;;;19.28;35.78;100935.66;16139729;19;130061;-59
2022/04/25 06:23:48;;;;;;;6.05;2.47;;;;;;;19.25;35.55;100938.09;16136178;19;129728;-59
2022/04/25 06:29:10;;;;;;;6.60;2.30;;;;;;;19.22;35.39;100942.19;16140162;19;129410;-59
2022/04/25 06:34:32;;;;;;;8.15;2.35;;;;;;;19.20;35.18;100941.59;16137005;19;129264;-59
2022/04/25 06:39:54;;;;;;;6.72;2.58;;;;;;;19.19;35.36;100945.47;16139747;19;129715;-56
2022/04/25 06:45:16;;;;;;;5.93;2.38;;;;;;;19.16;35.46;100945.97;16138815;19;129509;-57
2022/04/25 06:50:38;;;;;;;5.82;2.25;;;;;;;19.15;35.45;100944.28;16139713;19;129396;-58
2022/04/25 06:55:59;;;;;;;6.80;2.50;;;;;;;19.12;35.25;100945.63;16133097;19;129218;-56
2022/04/25 07:01:21;;;;;;;6.15;2.50;;;;;;;19.10;35.18;100952.47;16131008;19;129285;-57
2022/04/25 07:06:44;;;;;;;5.63;2.47;;;;;;;19.06;35.18;100961.31;16136962;19;130029;-57
2022/04/25 07:12:11;;;;;;;7.57;2.97;;;;;;;19.04;34.84;100960.72;16135907;19;129321;-57
2022/04/25 07:17:33;;;;;;;7.22;2.83;;;;;;;19.02;34.77;100968.44;16136665;19;129750;-56
2022/04/25 07:28:51;;;;;;;5.22;2.85;;;;;;;18.99;35.10;100966.16;16133303;19;129458;-57
2022/04/25 07:34:13;;;;;;;5.03;3.45;;;;;;;18.96;34.72;100972.19;16134583;19;129578;-56
2022/04/25 07:39:34;;;;;;;4.28;2.78;;;;;;;18.95;34.73;100967.75;16132733;19;129914;-57
2022/04/25 07:44:56;;;;;;;5.07;2.45;;;;;;;18.96;35.11;100972.19;16133806;19;129825;-56
2022/04/25 07:50:23;;;;;;;3.80;2.65;;;;;;;18.97;35.15;100973.06;16134501;19;129266;-56
2022/04/25 07:55:45;;;;;;;5.13;2.92;;;;;;;18.95;34.61;100978.84;16131452;19;129910;-58
2022/04/25 08:01:07;;;;;;;4.97;2.45;;;;;;;18.95;35.18;100976.09;16136653;19;129345;-56
2022/04/25 08:06:29;;;;;;;5.25;2.30;;;;;;;18.96;34.82;100983.28;16136834;19;129304;-54
2022/04/25 08:17:56;;;;;;;4.22;2.50;;;;;;;18.99;34.88;100990.28;16135355;19;129411;-56
2022/04/25 08:23:13;;;;;;;3.72;2.25;;;;;;;19.00;35.35;100992.78;16134662;19;129055;-59
2022/04/25 08:28:35;;;;;;;4.72;2.38;;;;;;;19.06;34.91;100997.38;16130033;19;129371;-59
2022/04/25 08:34:17;;;;;;;3.70;1.90;;;;;;;19.08;35.35;101000.72;16133125;19;129278;-58
2022/04/25 08:39:39;;;;;;;3.55;2.00;;;;;;;19.13;34.90;100996.38;16135886;19;129112;-56
2022/04/25 08:45:05;;;;;;;3.55;1.58;;;;;;;19.16;35.49;101001.41;16133776;19;129348;-57
2022/04/25 08:50:28;;;;;;;2.70;1.65;;;;;;;19.20;35.32;100995.13;16135311;19;129438;-59
2022/04/25 08:55:50;;;;;;;3.08;1.65;;;;;;;19.25;35.54;101004.69;16129785;19;129527;-59
2022/04/25 09:01:13;;;;;;;5.13;1.92;;;;;;;19.32;35.02;101000.63;16133024;19;129849;-58
2022/04/25 09:06:34;;;;;;;2.58;1.70;;;;;;;19.37;35.49;101003.50;16130749;19;129458;-59
2022/04/25 09:12:14;;;;;;;6.40;3.28;;;;;;;19.42;35.04;101010.25;16129697;19;131166;-55
2022/04/25 09:17:39;;;;;;;8.63;2.47;;;;;;;19.44;35.23;101011.69;16127589;19;129358;-58
2022/04/25 09:23:01;;;;;;;6.70;2.63;;;;;;;19.44;35.29;101019.16;16125263;19;131198;-59
2022/04/25 09:28:23;;;;;;;3.58;2.00;;;;;;;19.44;34.99;101022.78;16137781;19;129603;-58
2022/04/25 09:33:45;;;;;;;4.53;2.20;;;;;;;19.43;35.33;101023.88;16148692;19;129564;-57
2022/04/25 09:39:27;;;;;;;5.10;2.80;;;;;;;19.46;35.20;101022.50;16148404;19;130787;-56
2022/04/25 09:44:54;;;;;;;5.70;2.50;;;;;;;19.48;34.65;101021.19;16147445;19;129545;-57
2022/04/25 09:50:15;;;;;;;3.78;2.03;;;;;;;19.47;34.90;101024.19;16147814;19;129622;-55
2022/04/25 09:56:09;;;;;;;3.38;2.10;;;;;;;19.48;35.08;101031.44;16145207;19;129627;-56
2022/04/25 10:01:36;;;;;;;5.07;2.15;;;;;;;19.46;35.06;101033.63;16148683;19;129346;-58
2022/04/25 10:07:03;;;;;;;6.90;2.58;;;;;;;19.47;34.91;101040.84;16146789;19;128780;-56
2022/04/25 10:12:25;;;;;;;3.05;1.90;;;;;;;19.49;34.72;101042.31;16143817;19;129386;-56
2022/04/25 10:17:52;;;;;;;5.53;2.37;;;;;;;19.50;34.53;101044.00;16140876;19;128965;-54
2022/04/25 10:23:16;;;;;;;4.97;2.25;;;;;;;19.50;34.43;101045.91;16142261;19;129524;-57
2022/04/25 10:28:48;;;;;;;4.95;2.78;;;;;;;19.49;34.37;101052.53;16142405;19;129567;-57
2022/04/25 10:34:14;;;;;;;5.03;2.35;;;;;;;19.51;34.17;101062.28;16138322;19;131150;-59
2022/04/25 10:39:48;;;;;;;;;;;;;;;19.51;34.11;101061.47;16137223;19;129851;-58
2022/04/25 10:45:09;;;;;;;3.78;2.60;;;;;;;19.56;34.38;101067.13;16137692;19;129140;-59
2022/04/25 10:50:31;;;;;;;5.80;2.55;;;;;;;19.55;34.41;101065.44;16143640;19;129958;-57
2022/04/25 10:56:07;;;;;;;7.40;3.10;;;;;;;19.59;34.24;101069.38;16133288;19;130309;-58
2022/04/25 11:01:31;;;;;;;5.32;3.08;;;;;;;19.59;34.19;101074.94;16128175;19;130502;-58
2022/04/25 11:07:22;;;;;;;6.60;3.77;;;;;;;19.56;33.95;101083.78;16140946;19;129350;-58
2022/04/25 11:12:59;;;;;;;5.70;3.75;;;;;;;19.56;33.88;101082.91;16138042;19;129253;-58
2022/04/25 11:18:37;;;;;;;5.13;2.78;;;;;;;19.60;34.46;101100.75;16136108;19;129428;-58
2022/04/25 11:24:01;;;;;;;3.78;2.72;;;;;;;19.60;33.96;101096.03;16141916;19;129289;-58
2022/04/25 11:29:23;;;;;;;4.38;3.20;;;;;;;19.57;34.20;101096.53;16142664;19;129215;-58
2022/04/25 11:34:45;;;;;;;3.95;2.72;;;;;;;19.57;34.33;101101.25;16138690;19;129013;-57
2022/04/25 11:40:08;;;;;;;3.40;2.60;;;;;;;19.57;34.37;101102.09;16140355;19;129485;-58
2022/04/25 11:45:30;;;;;;;4.55;2.72;;;;;;;19.57;33.91;101096.53;16138001;19;130434;-58
2022/04/25 11:50:52;;;;;;;3.20;2.63;;;;;;;19.57;34.02;101093.75;16140182;19;129143;-59
2022/04/25 11:56:16;;;;;;;3.05;1.98;;;;;;;19.57;33.99;101085.44;16135624;19;129000;-57
2022/04/25 12:01:40;;;;;;;3.25;2.20;;;;;;;19.61;34.28;101096.91;16138977;19;129849;-58
2022/04/25 12:07:04;;;;;;;6.53;2.50;;;;;;;19.60;34.03;101087.72;16136718;19;129318;-57
2022/04/25 12:18:25;;;;;;;2.47;1.80;;;;;;;19.59;33.95;101102.69;16134731;19;128969;-57
2022/04/25 12:23:54;;;;;;;3.13;2.30;;;;;;;19.56;33.91;101105.13;16139378;19;129579;-58
2022/04/25 12:29:16;;;;;;;3.03;2.20;;;;;;;19.54;34.29;101102.59;16136361;19;129610;-58
2022/04/25 12:34:38;;;;;;;3.55;2.17;;;;;;;19.57;34.12;101104.03;16134982;19;129426;-55
2022/04/25 12:40:01;;;;;;;2.25;2.00;;;;;;;19.56;33.83;101103.19;16135797;19;129549;-57
2022/04/25 12:45:24;;;;;;;3.45;2.28;;;;;;;19.55;33.98;101107.06;16136435;19;129484;-57
2022/04/25 12:50:45;;;;;;;3.45;2.97;;;;;;;19.52;34.14;101099.22;16133906;19;129285;-59
2022/04/25 12:56:08;;;;;;;4.45;2.67;;;;;;;19.53;33.91;101106.47;16133479;19;129684;-60
2022/04/25 13:01:38;;;;;;;7.57;2.47;;;;;;;19.53;34.19;101095.38;16150381;19;129213;-57
2022/04/25 13:07:00;;;;;;;2.72;2.28;;;;;;;19.53;33.79;101098.13;16146975;19;131469;-56
2022/04/25 13:12:43;;;;;;;5.07;2.80;;;;;;;19.52;34.00;101096.44;16148753;19;129371;-57
2022/04/25 13:18:05;;;;;;;4.05;2.42;;;;;;;19.51;33.67;101092.00;16145479;19;128958;-57
2022/04/25 13:23:30;;;;;;;3.78;2.72;;;;;;;19.51;33.83;101103.09;16150234;19;129478;-57
2022/04/25 13:28:51;;;;;;;2.35;2.15;;;;;;;19.49;33.66;101103.34;16148527;19;129507;-58
2022/04/25 13:34:13;;;;;;;2.70;2.33;;;;;;;19.49;33.66;101105.25;16166669;19;129412;-57
2022/04/25 13:39:35;;;;;;;3.10;2.75;;;;;;;19.47;33.65;101101.88;16158676;19;129429;-58
2022/04/25 13:44:57;;;;;;;2.63;2.00;;;;;;;19.47;33.80;101101.88;16159721;19;129284;-57
2022/04/25 13:50:19;;;;;;;4.40;3.28;;;;;;;19.45;33.68;101098.50;16160681;19;129570;-57
2022/04/25 13:55:41;;;;;;;2.88;2.40;;;;;;;19.44;33.87;101105.19;16157943;19;129872;-57
2022/04/25 14:01:04;;;;;;;3.03;2.42;;;;;;;19.45;33.82;101106.84;16153756;19;128809;-57
2022/04/25 14:06:26;;;;;;;2.45;2.03;;;;;;;19.45;33.66;101107.69;16155445;19;129379;-58
2022/04/25 14:11:48;;;;;;;3.00;2.30;;;;;;;19.47;33.74;101107.44;16156452;19;128730;-58
2022/04/25 14:17:10;;;;;;;2.65;2.42;;;;;;;19.47;33.42;101112.97;16150938;19;128845;-59
2022/04/25 14:22:32;;;;;;;2.70;2.50;;;;;;;19.46;33.85;101106.59;16155271;19;130128;-58
2022/04/25 14:27:55;;;;;;;2.92;2.63;;;;;;;19.45;33.54;101112.38;16157970;19;129021;-57
2022/04/25 14:33:17;;;;;;;3.88;3.00;;;;;;;19.44;33.39;101113.50;16154023;19;129398;-57
2022/04/25 14:38:39;;;;;;;2.85;2.60;;;;;;;19.42;33.66;101110.97;16147434;19;128892;-54
2022/04/25 14:44:00;;;;;;;2.85;2.65;;;;;;;19.41;33.56;101119.53;16151297;19;128880;-57
2022/04/25 14:54:20;;;;;;;2.72;2.53;;;;;;;19.36;33.65;101121.13;16151782;19;129591;-55
2022/04/25 14:55:04;;;;;;;2.97;2.15;;;;;;;19.33;33.22;101124.38;16159540;19;129394;-58
2022/04/25 15:00:27;;;;;;;3.05;2.75;;;;;;;19.30;33.54;101130.44;16149945;19;129923;-58
2022/04/25 15:05:49;;;;;;;3.38;2.50;;;;;;;19.28;33.39;101132.59;16145277;19;129691;-58
2022/04/25 15:11:11;;;;;;;3.53;2.40;;;;;;;19.27;33.55;101135.59;16142399;19;128983;-58
2022/04/25 15:16:33;;;;;;;2.95;2.30;;;;;;;19.22;33.26;101137.22;16135119;19;128900;-58
2022/04/25 15:21:58;;;;;;;2.40;2.20;;;;;;;19.21;33.36;101145.75;16137454;19;129494;-58
2022/04/25 15:27:22;;;;;;;2.45;1.98;;;;;;;19.19;33.54;101151.53;16135703;19;129639;-59
2022/04/25 15:32:45;;;;;;;4.18;2.72;;;;;;;19.16;33.26;101157.56;16140087;19;130675;-60
2022/04/25 15:38:06;;;;;;;5.07;2.90;;;;;;;19.13;33.52;101162.75;16135834;19;130601;-62
2022/04/25 15:43:28;;;;;;;7.90;3.75;;;;;;;19.14;33.64;101159.72;16140154;19;129098;-58
2022/04/25 15:48:50;;;;;;;12.85;5.32;;;;;;;19.14;33.72;101153.34;16138461;19;129971;-63
2022/04/25 15:59:53;;;;;;;112.53;40.40;;;;;;;19.17;34.39;101161.19;16136738;19;129422;-60
2022/04/25 16:05:16;;;;;;;95.15;36.75;;;;;;;19.19;34.91;101161.78;16132171;19;130316;-59
2022/04/25 16:10:37;;;;;;;89.47;32.05;;;;;;;19.18;34.70;101169.25;16135710;19;129976;-61
2022/04/25 16:16:00;;;;;;;90.45;31.50;;;;;;;19.20;34.92;101174.56;16130229;19;129223;-58
2022/04/25 16:21:22;;;;;;;71.68;26.25;;;;;;;19.19;34.86;101162.63;16134393;19;130641;-64
2022/04/25 16:26:44;;;;;;;62.25;26.38;;;;;;;19.18;34.86;101168.41;16130394;19;130786;-61
2022/04/25 16:32:06;;;;;;;60.70;23.70;;;;;;;19.19;34.96;101175.66;16138660;19;130061;-58
2022/04/25 16:37:28;;;;;;;61.67;21.27;;;;;;;19.20;34.87;101182.91;16145638;19;129972;-69
2022/04/25 16:42:52;;;;;;;63.78;20.33;;;;;;;19.17;34.84;101188.91;16149892;19;129611;-69
2022/04/25 16:48:13;;;;;;;43.15;17.35;;;;;;;19.16;34.70;101193.59;16147379;19;129608;-68
2022/04/25 16:53:35;;;;;;;37.72;16.55;;;;;;;19.16;34.56;101190.00;16147759;19;129412;-64
2022/04/25 16:58:58;;;;;;;34.25;14.32;;;;;;;19.16;34.69;101190.84;16143383;19;130204;-64
2022/04/25 17:04:19;;;;;;;33.90;14.57;;;;;;;19.17;34.80;101198.06;16148216;19;129348;-63
2022/04/25 17:09:41;;;;;;;29.65;12.40;;;;;;;19.18;34.73;101198.94;16148002;19;130280;-58
2022/04/25 17:15:04;;;;;;;23.33;10.15;;;;;;;19.18;34.37;101204.47;16143080;19;129137;-63
2022/04/25 17:20:25;;;;;;;29.20;10.45;;;;;;;19.30;34.45;101204.47;16148708;19;129553;-61
2022/04/25 17:25:47;;;;;;;20.30;8.13;;;;;;;19.53;33.90;101206.34;16143460;19;129418;-66
